Time;durP1;ratioP1;P1;durP2;ratioP2;P2;SDS_P1;SDS_P2;PMS_P1;PMS_P2;Temp;Humidity;BMP_temperature;BMP_pressure;BME280_temperature;BME280_humidity;BME280_pressure;Samples;Min_cycle;Max_cycle;Signal;HPM_P1;HPM_P2
2023/10/20 00:00:26;;;;;;;12.43;11.33;;;;;;;17.29;100.00;98419.06;5227332;28;20049;-80
2023/10/20 00:02:57;;;;;;;15.70;12.07;;;;;;;17.07;100.00;98394.47;5228911;28;20032;-81
2023/10/20 00:05:29;;;;;;;14.07;11.73;;;;;;;17.13;100.00;98401.69;5226479;28;20083;-80
2023/10/20 00:08:02;;;;;;;15.73;12.43;;;;;;;17.11;100.00;98395.75;5226512;28;20084;-81
2023/10/20 00:10:36;;;;;;;18.47;12.83;;;;;;;17.13;100.00;98412.25;5210996;28;20033;-81
2023/10/20 00:13:09;;;;;;;17.13;13.07;;;;;;;16.93;100.00;98381.19;5227462;28;20303;-81
2023/10/20 00:15:44;;;;;;;17.17;12.20;;;;;;;17.21;100.00;98378.72;5227989;28;20025;-81
2023/10/20 00:18:15;;;;;;;16.57;12.50;;;;;;;17.12;100.00;98389.44;5227291;28;20025;-81
2023/10/20 00:20:46;;;;;;;13.57;12.20;;;;;;;17.35;100.00;98421.94;5228158;28;20024;-81
2023/10/20 00:23:18;;;;;;;13.37;12.07;;;;;;;17.25;100.00;98407.22;5226075;28;20490;-81
2023/10/20 00:25:49;;;;;;;14.43;12.13;;;;;;;17.05;100.00;98370.09;5228098;28;20493;-81
2023/10/20 00:28:21;;;;;;;14.67;12.63;;;;;;;17.17;100.00;98368.53;5242676;28;20018;-82
2023/10/20 00:30:52;;;;;;;15.83;13.30;;;;;;;17.19;100.00;98375.47;5226200;28;20578;-82
2023/10/20 00:33:23;;;;;;;14.93;13.43;;;;;;;17.00;100.00;98335.47;5227750;28;20469;-82
2023/10/20 00:35:55;;;;;;;14.87;13.37;;;;;;;17.05;100.00;98322.50;5226569;28;20032;-81
2023/10/20 00:38:26;;;;;;;16.10;13.47;;;;;;;17.10;100.00;98340.44;5226830;28;20037;-81
2023/10/20 00:40:57;;;;;;;15.07;13.63;;;;;;;17.09;100.00;98326.34;5227798;28;20466;-81
2023/10/20 00:43:37;;;;;;;15.17;13.13;;;;;;;17.39;100.00;98335.84;5225825;28;20505;-81
2023/10/20 00:46:10;;;;;;;18.00;12.67;;;;;;;17.03;100.00;98301.53;5226995;28;20489;-80
2023/10/20 00:48:42;;;;;;;14.63;12.90;;;;;;;17.07;100.00;98301.13;5227526;28;20276;-80
2023/10/20 00:51:13;;;;;;;15.77;12.87;;;;;;;17.03;100.00;98298.88;5227268;28;20036;-80
2023/10/20 00:53:47;;;;;;;15.70;13.83;;;;;;;17.00;100.00;98298.47;5225970;28;20064;-80
2023/10/20 00:56:18;;;;;;;15.73;13.35;;;;;;;17.15;100.00;98290.41;5225807;28;20033;-80
2023/10/20 00:58:50;;;;;;;15.60;13.07;;;;;;;17.28;100.00;98316.91;5226680;28;20036;-79
2023/10/20 01:01:21;;;;;;;15.30;13.47;;;;;;;17.26;100.00;98316.28;5226897;28;20021;-80
2023/10/20 01:03:53;;;;;;;14.57;13.07;;;;;;;17.07;100.00;98299.28;5227325;28;20029;-80
2023/10/20 01:06:25;;;;;;;14.87;13.27;;;;;;;17.04;100.00;98289.94;5226625;28;20033;-80
2023/10/20 01:08:57;;;;;;;16.03;14.07;;;;;;;17.13;100.00;98313.59;5226424;28;20235;-80
2023/10/20 01:11:28;;;;;;;15.63;13.87;;;;;;;16.91;100.00;98272.19;5226798;28;20408;-80
2023/10/20 01:14:01;;;;;;;17.93;15.47;;;;;;;17.00;100.00;98267.53;5226595;28;20046;-80
2023/10/20 01:16:32;;;;;;;16.30;14.33;;;;;;;16.90;100.00;98252.06;5226606;28;20086;-80
2023/10/20 01:19:04;;;;;;;15.60;14.00;;;;;;;17.03;100.00;98268.97;5227090;28;20029;-80
2023/10/20 01:21:36;;;;;;;14.57;13.07;;;;;;;16.97;100.00;98245.97;5224933;28;20465;-80
2023/10/20 01:24:07;;;;;;;15.27;13.57;;;;;;;17.04;100.00;98250.28;5241261;28;20340;-80
2023/10/20 01:26:39;;;;;;;15.50;14.03;;;;;;;17.00;100.00;98243.75;5226956;28;20013;-80
2023/10/20 01:29:12;;;;;;;17.00;13.80;;;;;;;17.10;100.00;98261.94;5226479;28;20083;-80
2023/10/20 01:31:43;;;;;;;16.07;14.47;;;;;;;16.80;100.00;98219.88;5227149;28;20030;-80
2023/10/20 01:34:14;;;;;;;15.03;13.50;;;;;;;17.02;100.00;98243.53;5229363;28;20025;-80
2023/10/20 01:36:46;;;;;;;15.33;13.83;;;;;;;16.87;100.00;98233.94;5231461;28;20041;-80
2023/10/20 01:39:17;;;;;;;16.33;14.47;;;;;;;17.03;100.00;98255.75;5228138;28;20025;-80
2023/10/20 01:41:49;;;;;;;15.70;14.30;;;;;;;16.81;100.00;98232.06;5230767;28;20029;-80
2023/10/20 01:44:20;;;;;;;17.63;14.57;;;;;;;17.00;100.00;98253.53;5231146;28;20029;-80
2023/10/20 01:46:51;;;;;;;15.73;14.10;;;;;;;16.86;100.00;98219.09;5230161;28;20025;-80
2023/10/20 01:49:23;;;;;;;16.33;14.57;;;;;;;16.86;100.00;98211.16;5230431;28;20112;-80
2023/10/20 01:51:54;;;;;;;16.40;14.57;;;;;;;16.95;100.00;98222.38;5230573;28;20075;-80
2023/10/20 01:54:25;;;;;;;16.77;13.70;;;;;;;16.85;100.00;98206.06;5229154;28;20025;-80
2023/10/20 01:56:57;;;;;;;17.57;15.43;;;;;;;16.91;100.00;98214.03;5230424;28;20091;-81
2023/10/20 01:59:28;;;;;;;16.70;15.00;;;;;;;16.94;100.00;98212.81;5230500;28;20431;-81
2023/10/20 02:02:00;;;;;;;16.23;13.67;;;;;;;16.81;100.00;98185.31;5230279;28;20029;-80
2023/10/20 02:04:31;;;;;;;17.73;15.30;;;;;;;16.93;100.00;98190.84;5230117;28;20044;-80
2023/10/20 02:07:03;;;;;;;17.13;14.77;;;;;;;16.93;100.00;98180.28;5230267;28;20033;-80
2023/10/20 02:09:34;;;;;;;15.73;13.97;;;;;;;16.88;100.00;98173.94;5227946;28;20025;-80
2023/10/20 02:12:05;;;;;;;16.83;15.17;;;;;;;16.96;100.00;98180.91;5230201;28;20161;-80
2023/10/20 02:14:37;;;;;;;16.53;14.80;;;;;;;16.86;100.00;98157.50;5229345;28;20076;-80
2023/10/20 02:17:08;;;;;;;18.00;15.27;;;;;;;17.00;100.00;98166.28;5230623;28;20407;-80
2023/10/20 02:19:40;;;;;;;18.40;16.40;;;;;;;16.88;100.00;98145.69;5230424;28;20484;-80
2023/10/20 02:22:12;;;;;;;17.37;15.57;;;;;;;16.79;100.00;98152.19;5228288;28;20022;-80
2023/10/20 02:24:45;;;;;;;17.77;15.30;;;;;;;16.90;100.00;98167.47;5230772;28;20037;-80
2023/10/20 02:27:16;;;;;;;18.27;16.43;;;;;;;17.05;100.00;98163.84;5229326;28;20021;-80
2023/10/20 02:29:47;;;;;;;21.33;15.47;;;;;;;16.89;100.00;98131.47;5230508;28;20485;-80
2023/10/20 02:32:19;;;;;;;17.27;15.53;;;;;;;17.18;100.00;98171.00;5229231;28;20021;-80
2023/10/20 02:34:50;;;;;;;18.27;16.50;;;;;;;17.12;100.00;98156.75;5229597;28;20095;-80
2023/10/20 02:37:21;;;;;;;17.50;15.60;;;;;;;17.07;100.00;98131.91;5228951;28;20444;-80
2023/10/20 02:39:53;;;;;;;20.47;16.50;;;;;;;16.96;100.00;98118.28;5229148;28;20057;-80
2023/10/20 02:42:24;;;;;;;16.70;15.10;;;;;;;17.28;100.00;98154.72;5229113;28;20497;-80
2023/10/20 02:44:55;;;;;;;16.83;15.03;;;;;;;17.05;100.00;98121.53;5229326;28;20037;-81
2023/10/20 02:47:27;;;;;;;18.03;16.13;;;;;;;16.86;100.00;98100.13;5244163;28;20017;-80
2023/10/20 02:49:59;;;;;;;18.70;16.80;;;;;;;16.97;100.00;98108.50;5228767;28;20371;-80
2023/10/20 02:52:30;;;;;;;19.80;17.67;;;;;;;16.85;100.00;98090.59;5228618;28;20530;-80
2023/10/20 02:55:01;;;;;;;17.57;15.73;;;;;;;16.91;100.00;98076.56;5229005;28;20100;-80
2023/10/20 02:57:33;;;;;;;16.80;14.97;;;;;;;17.05;100.00;98097.75;5229568;28;20401;-80
2023/10/20 03:00:10;;;;;;;17.77;15.90;;;;;;;16.96;100.00;98094.47;5229207;28;20029;-80
2023/10/20 03:02:42;;;;;;;17.37;15.63;;;;;;;16.87;100.00;98078.00;5243746;28;20480;-80
2023/10/20 03:05:13;;;;;;;17.60;15.73;;;;;;;16.81;100.00;98063.75;5227762;28;20108;-80
2023/10/20 03:07:45;;;;;;;16.33;14.83;;;;;;;16.90;100.00;98045.88;5226867;28;20018;-80
2023/10/20 03:10:16;;;;;;;18.17;15.70;;;;;;;17.05;100.00;98053.59;5228666;28;20096;-80
2023/10/20 03:12:48;;;;;;;17.67;15.77;;;;;;;16.95;100.00;98031.25;5228805;28;20109;-80
2023/10/20 03:15:19;;;;;;;16.70;14.70;;;;;;;16.94;100.00;98046.28;5228984;28;20461;-80
2023/10/20 03:17:51;;;;;;;16.70;15.00;;;;;;;16.96;100.00;98054.00;5228791;28;20033;-80
2023/10/20 03:20:30;;;;;;;21.47;15.90;;;;;;;17.02;100.00;98079.63;5228416;28;20188;-80
2023/10/20 03:23:01;;;;;;;16.80;15.10;;;;;;;17.10;100.00;98089.22;5228597;28;20068;-80
2023/10/20 03:25:33;;;;;;;17.47;15.53;;;;;;;17.01;100.00;98046.28;5228449;28;20439;-80
2023/10/20 03:28:06;;;;;;;17.50;15.83;;;;;;;17.20;100.00;98080.88;5228566;28;20044;-80
2023/10/20 03:30:38;;;;;;;16.77;15.03;;;;;;;17.06;100.00;98059.69;5228449;28;20390;-80
2023/10/20 03:33:13;;;;;;;16.87;15.27;;;;;;;16.96;100.00;98027.56;5228548;28;20108;-81
2023/10/20 03:35:44;;;;;;;;;;;;;;;17.93;100.00;98051.84;5226979;28;20017;-80
2023/10/20 03:38:15;;;;;;;16.67;14.90;;;;;;;16.90;100.00;97997.47;5226429;28;19909;-80
2023/10/20 03:40:46;;;;;;;18.73;15.83;;;;;;;17.03;100.00;98012.53;5229160;28;20025;-80
2023/10/20 03:43:19;;;;;;;16.87;15.20;;;;;;;17.04;100.00;98022.06;5227676;28;20493;-80
2023/10/20 03:45:56;;;;;;;18.43;16.37;;;;;;;16.93;100.00;98013.75;5228651;28;20287;-80
2023/10/20 03:48:29;;;;;;;18.23;16.43;;;;;;;16.83;100.00;98000.13;5243236;28;20075;-80
2023/10/20 03:51:04;;;;;;;18.43;16.53;;;;;;;17.21;100.00;98056.88;5227629;28;20060;-80
2023/10/20 03:53:50;;;;;;;17.53;15.80;;;;;;;17.10;100.00;98023.13;5242164;28;20456;-80
2023/10/20 03:56:23;;;;;;;16.47;14.63;;;;;;;16.99;100.00;97974.28;5250768;28;20542;-80
2023/10/20 03:58:56;;;;;;;17.93;15.70;;;;;;;17.12;100.00;98027.19;5238445;28;20024;-80
2023/10/20 04:01:27;;;;;;;18.47;16.50;;;;;;;17.03;100.00;98013.34;5237356;28;20101;-80
2023/10/20 04:03:59;;;;;;;17.77;15.97;;;;;;;16.74;100.00;97973.06;5236273;28;20161;-80
2023/10/20 04:06:30;;;;;;;17.87;15.83;;;;;;;16.94;100.00;97988.13;5237821;28;20029;-80
2023/10/20 04:09:08;;;;;;;18.87;16.97;;;;;;;16.90;100.00;97993.00;5231436;28;20223;-80
2023/10/20 04:11:39;;;;;;;18.43;16.43;;;;;;;16.95;100.00;97979.16;5228852;28;20551;-80
2023/10/20 04:14:12;;;;;;;20.23;17.07;;;;;;;17.07;100.00;97989.94;5227058;28;20124;-80
2023/10/20 04:16:45;;;;;;;17.50;15.73;;;;;;;16.96;100.00;97974.69;5227910;28;20326;-80
2023/10/20 04:19:16;;;;;;;17.20;15.67;;;;;;;16.83;100.00;97943.78;5228317;28;20033;-80
2023/10/20 04:21:48;;;;;;;17.77;15.97;;;;;;;16.78;100.00;97941.78;5226690;28;20029;-80
2023/10/20 04:24:21;;;;;;;20.00;16.47;;;;;;;16.74;100.00;97919.44;5228047;28;20029;-80
2023/10/20 04:26:54;;;;;;;18.93;15.60;;;;;;;16.73;100.00;97931.00;5227689;28;20101;-80
2023/10/20 04:29:34;;;;;;;21.03;17.27;;;;;;;16.77;100.00;97925.09;5225801;28;20432;-80
2023/10/20 04:43:42;;;;;;;20.07;15.93;;;;;;;17.01;100.00;97916.75;5227223;28;20025;-80
2023/10/20 04:54:45;;;;;;;18.20;16.30;;;;;;;16.74;100.00;97858.66;5227022;28;20029;-82
2023/10/20 05:02:57;;;;;;;20.53;16.90;;;;;;;16.86;100.00;97859.63;5227985;28;20284;-81
2023/10/20 05:05:41;;;;;;;21.37;17.37;;;;;;;16.89;100.00;97853.13;5226061;28;20300;-82
2023/10/20 05:10:45;;;;;;;22.47;18.50;;;;;;;16.85;100.00;97828.94;5226982;28;20245;-81
2023/10/20 05:13:16;;;;;;;19.50;17.03;;;;;;;16.72;100.00;97816.56;5227016;28;20453;-80
2023/10/20 05:15:48;;;;;;;19.13;17.10;;;;;;;16.74;100.00;97819.81;5226388;28;20132;-80
2023/10/20 05:18:19;;;;;;;20.63;17.80;;;;;;;16.84;100.00;97839.72;5242033;28;20116;-80
2023/10/20 05:20:51;;;;;;;21.13;19.13;;;;;;;16.87;100.00;97816.34;5226810;28;20148;-80
2023/10/20 05:23:22;;;;;;;21.93;19.63;;;;;;;16.77;100.00;97800.09;5225920;28;20021;-80
2023/10/20 05:25:53;;;;;;;21.00;18.83;;;;;;;17.09;100.00;97829.25;5226755;28;20322;-80
2023/10/20 05:28:25;;;;;;;21.83;19.63;;;;;;;17.10;100.00;97827.47;5226900;28;20041;-80
2023/10/20 05:30:57;;;;;;;21.60;19.30;;;;;;;17.12;100.00;97831.50;5225652;28;20056;-80
2023/10/20 05:33:29;;;;;;;23.17;20.10;;;;;;;16.88;100.00;97825.06;5226292;28;20252;-80
2023/10/20 05:36:04;;;;;;;24.33;19.93;;;;;;;17.12;100.00;97833.38;5226661;28;20535;-80
2023/10/20 05:38:35;;;;;;;23.00;20.60;;;;;;;16.80;100.00;97821.63;5223551;28;20036;-80
2023/10/20 05:41:06;;;;;;;21.27;19.37;;;;;;;16.82;100.00;97832.00;5227042;28;20033;-80
2023/10/20 05:43:38;;;;;;;23.00;20.90;;;;;;;16.80;100.00;97823.47;5224581;28;20033;-80
2023/10/20 05:46:17;;;;;;;23.97;21.60;;;;;;;17.15;100.00;97833.75;5225895;28;20025;-80
2023/10/20 05:48:49;;;;;;;23.07;20.90;;;;;;;17.04;100.00;97829.91;5224734;28;20229;-80
2023/10/20 05:51:21;;;;;;;22.83;20.63;;;;;;;17.07;100.00;97852.44;5226884;28;20033;-80
2023/10/20 05:53:53;;;;;;;23.43;21.03;;;;;;;16.83;100.00;97801.06;5225609;28;20060;-81
2023/10/20 05:56:24;;;;;;;24.47;22.23;;;;;;;16.79;100.00;97809.44;5225815;28;20108;-81
2023/10/20 05:58:55;;;;;;;24.17;21.87;;;;;;;16.95;100.00;97817.91;5227067;28;20025;-81
2023/10/20 06:01:27;;;;;;;26.00;23.40;;;;;;;16.81;100.00;97798.66;5225246;28;20485;-81
2023/10/20 06:03:58;;;;;;;26.13;22.80;;;;;;;16.77;100.00;97803.53;5226727;28;20049;-81
2023/10/20 06:06:31;;;;;;;26.17;22.77;;;;;;;16.62;100.00;97772.06;5225965;28;20022;-81
2023/10/20 06:09:06;;;;;;;24.10;21.83;;;;;;;16.67;100.00;97785.47;5224722;28;20124;-82
2023/10/20 06:11:38;;;;;;;23.27;21.17;;;;;;;16.69;100.00;97790.56;5226328;28;20053;-82
2023/10/20 06:14:10;;;;;;;25.10;22.53;;;;;;;16.72;100.00;97795.41;5226311;28;20053;-81
2023/10/20 06:16:42;;;;;;;23.80;21.37;;;;;;;16.51;100.00;97776.16;5226209;28;20021;-81
2023/10/20 06:19:13;;;;;;;23.00;20.80;;;;;;;16.69;100.00;97803.75;5242609;28;20055;-81
2023/10/20 06:21:45;;;;;;;21.00;19.00;;;;;;;16.60;100.00;97797.88;5228340;28;20061;-81
2023/10/20 06:24:16;;;;;;;21.17;19.17;;;;;;;16.65;100.00;97800.72;5228820;28;20366;-81
2023/10/20 06:26:48;;;;;;;21.43;19.33;;;;;;;16.61;100.00;97765.19;5230384;28;20021;-81
2023/10/20 06:29:41;;;;;;;21.07;18.83;;;;;;;16.65;100.00;97763.72;5244454;28;20052;-81
2023/10/20 06:34:47;;;;;;;19.95;18.02;;;;;;;16.65;100.00;97763.72;5229736;28;20030;-81
2023/10/20 06:37:28;;;;;;;21.10;18.90;;;;;;;16.77;100.00;97792.16;5244233;28;20017;-81
2023/10/20 06:39:59;;;;;;;20.00;17.93;;;;;;;16.84;100.00;97789.50;5244282;28;20030;-81
2023/10/20 06:42:31;;;;;;;21.40;19.20;;;;;;;17.05;100.00;97820.94;5229413;28;20075;-81
2023/10/20 06:45:04;;;;;;;21.03;19.03;;;;;;;17.00;100.00;97812.03;5229055;28;20557;-81
2023/10/20 06:47:35;;;;;;;27.75;19.45;;;;;;;16.84;100.00;97776.28;5228613;28;20076;-81
2023/10/20 06:50:10;;;;;;;22.17;20.00;;;;;;;16.88;100.00;97786.22;5228827;28;20681;-81
2023/10/20 06:52:41;;;;;;;;;;;;;;;17.75;100.00;97810.63;5228994;28;20546;-81
2023/10/20 06:55:13;;;;;;;22.90;20.37;;;;;;;16.74;100.00;97776.75;5229485;28;19913;-81
2023/10/20 06:57:44;;;;;;;22.73;20.37;;;;;;;16.70;100.00;97773.69;5227317;28;20126;-81
2023/10/20 07:00:17;;;;;;;24.10;21.57;;;;;;;16.67;100.00;97766.97;5229590;28;20033;-81
2023/10/20 07:02:48;;;;;;;23.73;19.57;;;;;;;16.66;100.00;97764.56;5228808;28;20033;-81
2023/10/20 07:05:23;;;;;;;23.20;19.93;;;;;;;16.71;100.00;97758.63;5244270;28;20037;-81
2023/10/20 07:07:55;;;;;;;24.87;20.83;;;;;;;16.74;100.00;97768.81;5227664;28;20029;-81
2023/10/20 07:10:27;;;;;;;32.43;20.37;;;;;;;16.90;100.00;97792.13;5229019;28;20547;-81
2023/10/20 07:13:00;;;;;;;21.57;19.50;;;;;;;16.69;100.00;97761.50;5227389;28;20507;-80
2023/10/20 07:15:35;;;;;;;21.70;19.70;;;;;;;16.78;100.00;97751.50;5229161;28;20416;-80
2023/10/20 07:18:07;;;;;;;22.88;20.60;;;;;;;16.97;100.00;97796.56;5229471;28;20635;-80
2023/10/20 07:20:38;;;;;;;21.53;19.40;;;;;;;16.66;100.00;97762.72;5228600;28;20100;-80
2023/10/20 07:23:10;;;;;;;20.87;18.83;;;;;;;16.57;100.00;97746.28;5227838;28;20040;-80
2023/10/20 07:25:42;;;;;;;20.77;18.77;;;;;;;16.60;100.00;97738.97;5228567;28;20087;-81
2023/10/20 07:28:14;;;;;;;19.50;17.67;;;;;;;16.62;100.00;97745.66;5228117;28;20068;-80
2023/10/20 07:30:45;;;;;;;20.27;18.43;;;;;;;16.75;100.00;97768.59;5228018;28;20049;-81
2023/10/20 07:33:17;;;;;;;19.87;18.17;;;;;;;16.62;100.00;97742.19;5227356;28;20417;-81
2023/10/20 07:35:48;;;;;;;18.47;16.73;;;;;;;16.66;100.00;97746.88;5228750;28;20033;-80
2023/10/20 07:38:19;;;;;;;18.33;16.73;;;;;;;16.79;100.00;97764.50;5227117;28;20025;-81
2023/10/20 07:40:51;;;;;;;19.13;16.63;;;;;;;16.81;100.00;97759.00;5228780;28;20025;-80
2023/10/20 07:43:22;;;;;;;19.17;16.33;;;;;;;16.72;100.00;97741.78;5226281;28;20203;-81
2023/10/20 07:45:53;;;;;;;18.40;16.50;;;;;;;16.66;100.00;97723.09;5228806;28;20049;-80
2023/10/20 07:48:26;;;;;;;17.43;15.80;;;;;;;16.67;100.00;97735.28;5227709;28;20036;-80
2023/10/20 07:50:59;;;;;;;20.60;16.40;;;;;;;16.62;100.00;97705.22;5227300;28;20497;-80
2023/10/20 07:53:30;;;;;;;17.23;15.63;;;;;;;16.72;100.00;97728.56;5209919;28;20030;-80
2023/10/20 07:56:02;;;;;;;26.73;15.43;;;;;;;16.73;100.00;97722.25;5227400;28;20040;-80
2023/10/20 07:58:34;;;;;;;14.97;13.67;;;;;;;16.87;100.00;97723.00;5228358;28;20018;-80
2023/10/20 08:01:06;;;;;;;15.07;13.67;;;;;;;17.12;100.00;97751.41;5227635;28;20021;-80
2023/10/20 08:03:38;;;;;;;14.53;13.33;;;;;;;16.73;100.00;97693.19;5228128;28;20108;-80
2023/10/20 08:06:10;;;;;;;15.10;13.77;;;;;;;16.78;100.00;97714.50;5226968;28;20101;-80
2023/10/20 08:08:42;;;;;;;14.03;12.83;;;;;;;16.85;100.00;97744.38;5227627;28;20560;-80
2023/10/20 08:11:13;;;;;;;13.07;11.60;;;;;;;16.69;100.00;97712.09;5227025;28;20025;-80
2023/10/20 08:13:50;;;;;;;12.93;11.63;;;;;;;16.89;100.00;97740.28;5243303;28;20058;-80
2023/10/20 08:16:21;;;;;;;13.77;10.63;;;;;;;16.85;100.00;97762.03;5227727;28;20505;-80
2023/10/20 08:18:53;;;;;;;11.03;10.03;;;;;;;16.54;100.00;97699.16;5227289;28;20064;-80
2023/10/20 08:21:29;;;;;;;11.10;10.10;;;;;;;16.63;100.00;97717.41;5227166;28;20017;-80
2023/10/20 08:24:02;;;;;;;10.60;9.53;;;;;;;16.62;100.00;97727.16;5227058;28;20052;-80
2023/10/20 08:26:34;;;;;;;9.20;8.33;;;;;;;16.57;100.00;97724.34;5225726;28;20029;-80
2023/10/20 08:29:11;;;;;;;11.87;9.30;;;;;;;16.51;100.00;97707.47;5242753;28;20029;-80
2023/10/20 08:31:42;;;;;;;8.30;7.50;;;;;;;16.57;100.00;97713.78;5227753;28;20032;-80
2023/10/20 08:34:14;;;;;;;8.13;7.10;;;;;;;16.57;100.00;97730.44;5226766;28;20473;-80
2023/10/20 08:36:45;;;;;;;8.87;7.97;;;;;;;16.57;100.00;97729.63;5241810;28;20025;-80
2023/10/20 08:39:20;;;;;;;7.50;6.80;;;;;;;16.52;100.00;97711.75;5227403;28;20104;-80
2023/10/20 08:41:52;;;;;;;8.17;7.20;;;;;;;16.49;100.00;97724.56;5226965;28;20168;-80
2023/10/20 08:44:24;;;;;;;8.17;7.33;;;;;;;16.50;100.00;97710.34;5227046;28;20017;-80
2023/10/20 08:46:57;;;;;;;7.60;6.67;;;;;;;16.44;100.00;97688.22;5236836;28;20032;-80
2023/10/20 08:49:29;;;;;;;7.30;6.53;;;;;;;16.45;100.00;97700.41;5234513;28;20057;-80
2023/10/20 08:52:04;;;;;;;8.77;6.50;;;;;;;16.55;100.00;97702.59;5237772;28;20021;-80
2023/10/20 08:54:36;;;;;;;9.20;5.53;;;;;;;16.56;100.00;97701.59;5239802;28;20091;-80
2023/10/20 08:57:08;;;;;;;6.37;5.77;;;;;;;16.83;100.00;97732.38;5237402;28;20036;-80
2023/10/20 08:59:51;;;;;;;9.53;6.20;;;;;;;16.67;100.00;97679.78;5245705;28;20041;-80
2023/10/20 09:02:23;;;;;;;5.57;5.07;;;;;;;16.74;100.00;97734.47;5225121;28;20508;-80
2023/10/20 09:04:54;;;;;;;5.37;4.87;;;;;;;16.56;100.00;97701.59;5227560;28;20341;-80
2023/10/20 09:07:25;;;;;;;4.63;4.13;;;;;;;16.66;100.00;97738.94;5240617;28;20396;-80
2023/10/20 09:09:57;;;;;;;5.50;5.00;;;;;;;16.81;100.00;97745.78;5226630;28;20032;-80
2023/10/20 09:12:30;;;;;;;6.50;4.27;;;;;;;16.75;100.00;97730.78;5226668;28;20045;-80
2023/10/20 09:15:01;;;;;;;4.77;4.37;;;;;;;16.57;100.00;97713.78;5226216;28;20385;-80
2023/10/20 09:17:33;;;;;;;4.77;4.37;;;;;;;16.47;100.00;97703.66;5226762;28;20033;-80
2023/10/20 09:20:07;;;;;;;4.53;3.83;;;;;;;16.64;100.00;97730.41;5226932;28;20242;-81
2023/10/20 09:22:38;;;;;;;5.60;4.57;;;;;;;16.43;100.00;97705.06;5224527;28;20033;-80
2023/10/20 09:25:11;;;;;;;7.77;3.50;;;;;;;16.61;100.00;97708.88;5225786;28;20025;-80
2023/10/20 09:27:42;;;;;;;6.20;3.60;;;;;;;16.37;100.00;97688.22;5227203;28;20083;-81
2023/10/20 09:30:15;;;;;;;3.30;3.00;;;;;;;16.24;100.00;97686.44;5226475;28;20044;-81
2023/10/20 09:32:47;;;;;;;6.03;2.83;;;;;;;16.42;100.00;97701.63;5225023;28;20481;-80
2023/10/20 09:35:19;;;;;;;7.30;3.30;;;;;;;16.47;100.00;97702.84;5226820;28;20026;-80
2023/10/20 09:37:55;;;;;;;3.43;2.70;;;;;;;16.65;100.00;97726.75;5240869;28;20484;-81
2023/10/20 09:40:27;;;;;;;2.67;2.47;;;;;;;16.40;100.00;97692.28;5226326;28;20029;-81
2023/10/20 09:43:23;;;;;;;10.90;3.00;;;;;;;16.83;100.00;97701.47;5226238;28;20017;-80
2023/10/20 09:46:06;;;;;;;5.60;2.47;;;;;;;16.52;100.00;97698.56;5226475;28;20159;-81
2023/10/20 09:48:40;;;;;;;3.33;2.47;;;;;;;16.22;100.00;97675.28;5241802;28;20029;-80
2023/10/20 09:51:13;;;;;;;4.43;1.93;;;;;;;16.24;100.00;97698.81;5225236;28;20021;-81
2023/10/20 09:53:46;;;;;;;5.17;2.00;;;;;;;16.36;100.00;97723.59;5226202;28;20017;-81
2023/10/20 09:56:18;;;;;;;3.00;2.70;;;;;;;15.99;100.00;97665.16;5229882;28;20017;-80
2023/10/20 09:58:56;;;;;;;3.13;2.50;;;;;;;16.37;100.00;97692.72;5231188;28;20045;-81
2023/10/20 10:01:30;;;;;;;2.43;2.23;;;;;;;16.12;100.00;97673.06;5230150;28;20024;-81
2023/10/20 10:04:03;;;;;;;3.60;2.90;;;;;;;16.34;100.00;97704.50;5230573;28;20021;-80
2023/10/20 10:06:35;;;;;;;2.70;2.10;;;;;;;16.02;100.00;97662.94;5244267;28;20032;-80
2023/10/20 10:09:08;;;;;;;2.70;1.93;;;;;;;15.89;100.00;97681.38;5229783;28;20032;-81
2023/10/20 10:11:43;;;;;;;3.73;2.30;;;;;;;16.11;100.00;97689.13;5245604;28;20040;-81
2023/10/20 10:14:23;;;;;;;2.60;1.90;;;;;;;16.37;100.00;97696.16;5228174;28;20528;-81
2023/10/20 10:16:55;;;;;;;3.00;2.30;;;;;;;16.08;100.00;97670.03;5230034;28;20029;-81
2023/10/20 10:19:28;;;;;;;2.03;1.80;;;;;;;16.32;100.00;97685.38;5229647;28;20037;-81
2023/10/20 10:22:01;;;;;;;3.23;2.10;;;;;;;16.18;100.00;97659.03;5229289;28;20048;-80
2023/10/20 10:24:36;;;;;;;1.97;1.77;;;;;;;16.46;100.00;97680.88;5229377;28;20494;-80
2023/10/20 10:27:08;;;;;;;2.07;1.80;;;;;;;16.17;100.00;97667.97;5229480;28;20060;-81
2023/10/20 10:29:50;;;;;;;2.37;1.50;;;;;;;16.27;100.00;97651.69;5228126;28;20041;-81
2023/10/20 10:32:23;;;;;;;2.07;1.80;;;;;;;16.32;100.00;97669.53;5228241;28;20117;-81
2023/10/20 10:34:54;;;;;;;1.97;1.53;;;;;;;16.45;100.00;97685.38;5229715;28;20087;-81
2023/10/20 10:37:34;;;;;;;3.73;1.53;;;;;;;16.53;100.00;97667.69;5243694;28;20469;-81
2023/10/20 10:40:09;;;;;;;2.40;1.80;;;;;;;16.54;100.00;97690.41;5228027;28;20030;-81
2023/10/20 10:42:45;;;;;;;2.57;1.80;;;;;;;16.39;100.00;97653.72;5227725;28;20748;-81
2023/10/20 10:45:21;;;;;;;3.40;2.50;;;;;;;16.44;100.00;97657.31;5227559;28;20022;-81
2023/10/20 10:48:04;;;;;;;3.30;2.17;;;;;;;16.72;100.00;97668.59;5230099;28;20578;-81
2023/10/20 10:50:37;;;;;;;2.83;2.07;;;;;;;16.60;100.00;97681.66;5227587;28;20041;-81
2023/10/20 10:53:10;;;;;;;4.00;1.93;;;;;;;16.31;100.00;97645.00;5228763;28;20029;-81
2023/10/20 10:55:41;;;;;;;2.77;2.00;;;;;;;16.51;100.00;97667.06;5228921;28;20026;-81
2023/10/20 10:58:14;;;;;;;2.97;2.10;;;;;;;16.46;100.00;97643.91;5229540;28;20536;-81
2023/10/20 11:00:46;;;;;;;3.60;1.40;;;;;;;16.27;100.00;97617.38;5229041;28;20323;-81
2023/10/20 11:03:19;;;;;;;2.27;1.30;;;;;;;16.47;100.00;97620.94;5229441;28;20312;-81
2023/10/20 11:05:50;;;;;;;2.17;1.57;;;;;;;16.35;100.00;97607.59;5227077;28;20103;-81
2023/10/20 11:08:22;;;;;;;2.77;1.43;;;;;;;16.36;100.00;97606.56;5228751;28;20037;-81
2023/10/20 11:10:53;;;;;;;2.10;1.53;;;;;;;16.44;100.00;97615.06;5227638;28;20365;-81
2023/10/20 11:13:27;;;;;;;2.60;1.60;;;;;;;16.51;100.00;97609.75;5228352;28;20249;-81
2023/10/20 11:15:58;;;;;;;2.33;1.58;;;;;;;16.32;100.00;97593.78;5229243;28;20034;-81
2023/10/20 11:18:32;;;;;;;5.70;2.67;;;;;;;16.32;100.00;97591.16;5228238;28;20415;-81
2023/10/20 11:21:05;;;;;;;3.17;2.60;;;;;;;16.50;100.00;97620.53;5227680;28;20022;-81
2023/10/20 11:23:37;;;;;;;3.03;2.20;;;;;;;16.41;100.00;97589.09;5228743;28;20037;-81
2023/10/20 11:26:17;;;;;;;2.83;2.53;;;;;;;16.73;100.00;97606.00;5228591;28;20377;-81
2023/10/20 11:28:49;;;;;;;4.70;3.30;;;;;;;16.50;100.00;97587.00;5228260;28;20029;-81
2023/10/20 11:31:21;;;;;;;5.60;3.43;;;;;;;16.50;100.00;97565.06;5228689;28;20028;-81
2023/10/20 11:33:52;;;;;;;3.13;2.83;;;;;;;16.52;100.00;97563.03;5228976;28;20026;-81
2023/10/20 11:36:24;;;;;;;3.50;3.20;;;;;;;16.59;100.00;97578.84;5226708;28;20035;-81
2023/10/20 11:38:55;;;;;;;4.80;3.67;;;;;;;16.73;100.00;97587.50;5228717;28;20029;-81
2023/10/20 11:41:27;;;;;;;4.73;3.50;;;;;;;16.59;100.00;97563.81;5228558;28;20025;-81
2023/10/20 11:43:58;;;;;;;3.57;3.27;;;;;;;16.62;100.00;97589.78;5226615;28;20053;-81
2023/10/20 11:46:29;;;;;;;3.70;3.03;;;;;;;16.71;100.00;97578.97;5228003;28;20454;-82
2023/10/20 11:49:01;;;;;;;3.77;3.43;;;;;;;16.56;100.00;97562.38;5228766;28;20256;-82
2023/10/20 11:51:32;;;;;;;4.07;3.67;;;;;;;16.49;100.00;97550.25;5227343;28;20480;-81
2023/10/20 11:54:05;;;;;;;4.03;3.70;;;;;;;16.80;100.00;97575.06;5227981;28;20029;-81
2023/10/20 11:56:37;;;;;;;4.50;4.10;;;;;;;16.53;100.00;97556.75;5228328;28;20045;-81
2023/10/20 11:59:09;;;;;;;4.60;3.90;;;;;;;16.76;100.00;97571.22;5227051;28;20421;-81
2023/10/20 12:01:40;;;;;;;4.67;4.27;;;;;;;16.36;100.00;97524.72;5227273;28;20520;-81
2023/10/20 12:04:12;;;;;;;4.33;4.03;;;;;;;16.57;100.00;97534.97;5227410;28;20033;-82
2023/10/20 12:06:44;;;;;;;5.13;4.73;;;;;;;16.72;100.00;97535.69;5227503;28;20013;-82
2023/10/20 12:09:19;;;;;;;5.23;4.73;;;;;;;16.73;100.00;97532.00;5243291;28;20233;-82